Fountain Run, Kentucky
Current Conditions -  °F | °C
As of 12:55 AM on Monday 22 Dec 2014 (Local Time) from KGLW Reporting Station
Clear Clear  
Wind Chill: 36°   Ceiling: Unl
Heat Index: 36°   Visibility: 10mi
Dew Point: 30°   Wind: 0mph
Humidity: 80%   Direction: NA
Pressure: 29.99"   Gusts: NA
Location:  36.72°N, 85.97°W
Report Text: KGLW 220655Z AUTO 00000KT 10SM CLR 02/M01 A2999 RMK AO2 T00211011
Loading
Personal Weather Stations






























Interactive Weather Map New forecast layout! Learn more

10-Day Weather Forecast

Advertisements
Track Severe Weather on mobile